East Willows Rd (358) Station Data

Red Flag Warning: No
Fire Weather Zone: 250
SDGE Region: Eastern
Lat/Lon: 32.837/-116.682

Observations

Time Wind Speed/Gust Temp(F) RH Fuel Moist Fuel Temp(F) Dewpt(F) Tmax(F) Tmin(F) Accum Precip 10-min Precip SL Press(mb)
6/27 5:00pm 257 8 G 13 87° 23% - - 44° 93.6° 75.3° - - -
6/27 4:50pm 263 9 G 17 87° 21% - - 43° 93.6° 75.3° - - -
6/27 4:40pm 258 10 G 16 88° 20% - - 42° 93.6° 75.3° - - -
6/27 4:30pm 260 9 G 15 88° 19% - - 40° 93.6° 75.3° - - -
6/27 4:20pm 262 10 G 15 88° 19% - - 41° 93.6° 75.3° - - -
6/27 4:10pm 267 10 G 16 88° 19% - - 41° 93.6° 75.3° - - -
6/27 4:00pm 265 9 G 15 89° 18% - - 41° 93.6° 75.3° - - -
6/27 3:50pm 263 9 G 15 88° 20% - - 43° 93.6° 75.3° - - -
6/27 3:40pm 265 10 G 18 88° 21% - - 43° 93.6° 75.3° - - -
6/27 3:30pm 262 10 G 17 88° 20% - - 42° 93.6° 75.3° - - -
6/27 3:20pm 268 9 G 16 89° 18% - - 40° 93.6° 75.3° - - -
6/27 3:10pm 256 11 G 17 89° 17% - - 39° 93.6° 75.3° - - -
6/27 3:00pm 250 10 G 19 90° 17% - - 40° 93.6° 75.3° - - -
6/27 2:50pm 259 10 G 18 90° 19% - - 42° 93.6° 75.3° - - -
6/27 2:40pm 247 12 G 18 89° 21% - - 43° 93.6° 75.3° - - -
6/27 2:30pm 265 9 G 17 90° 21% - - 45° 93.6° 75.3° - - -
6/27 2:20pm 258 10 G 17 90° 21% - - 44° 93.6° 75.3° - - -
6/27 2:10pm 258 9 G 17 90° 21% - - 44° 93.6° 75.3° - - -
6/27 2:00pm 252 10 G 16 90° 19% - - 43° 93.6° 75.3° - - -
6/27 1:50pm 258 8 G 18 91° 18% - - 42° 93.6° 75.3° - - -
6/27 1:40pm 278 8 G 16 91° 13% - - 34° 93.6° 75.3° - - -
6/27 1:30pm 264 10 G 16 92° 10% - - 26° 93.6° 75.3° - - -
6/27 1:20pm 272 9 G 18 92° 9% - - 25° 93.6° 75.3° - - -
6/27 1:10pm 266 10 G 18 91° 10% - - 27° 93.1° 75.3° - - -
6/27 1:00pm 261 10 G 17 91° 10% - - 27° 93.1° 75.3° - - -
6/27 12:50pm 258 11 G 18 92° 11% - - 29° 93.1° 75.3° - - -
6/27 12:40pm 255 12 G 18 91° 10% - - 28° 92.4° 75.3° - - -
6/27 12:30pm 264 9 G 16 91° 10% - - 27° 92.4° 75.3° - - -
6/27 12:20pm 256 11 G 19 91° 10% - - 27° 92.1° 75.3° - - -
6/27 12:10pm 256 9 G 16 91° 10% - - 27° 92.1° 75.3° - - -
6/27 12:00pm 258 10 G 17 91° 10% - - 26° 91.6° 75.3° - - -
6/27 11:50am 258 9 G 15 90° 10% - - 27° 91.6° 75.3° - - -
6/27 11:40am 261 8 G 14 90° 10% - - 26° 91° 75.3° - - -
6/27 11:30am 263 9 G 16 90° 10% - - 27° 91° 75.3° - - -
6/27 11:20am 258 10 G 17 90° 10% - - 27° 91° 75.3° - - -
6/27 11:10am 252 9 G 16 90° 10% - - 26° 91° 75.3° - - -
6/27 11:00am 256 9 G 15 90° 10% - - 27° 91° 75.3° - - -
6/27 10:50am 282 7 G 13 89° 10% - - 26° 91° 75.3° - - -
6/27 10:40am 282 7 G 11 89° 10% - - 26° 91° 75.3° - - -
6/27 10:30am 298 6 G 12 90° 10% - - 26° 91° 75.3° - - -
6/27 10:20am 287 6 G 11 89° 10% - - 25° 91° 75.3° - - -
6/27 10:10am 334 9 G 13 88° 10% - - 26° 89.3° 75.3° - - -
6/27 10:00am 328 7 G 13 88° 10% - - 25° 88.7° 75.3° - - -
6/27 9:50am 337 8 G 13 87° 10% - - 25° 88.5° 75.3° - - -
6/27 9:40am 334 8 G 13 87° 10% - - 24° 87.6° 75.3° - - -
6/27 9:30am 340 9 G 13 87° 10% - - 23° 87.6° 75.3° - - -
6/27 9:20am 325 7 G 11 87° 10% - - 23° 87.6° 75.3° - - -
6/27 9:10am 320 8 G 11 86° 10% - - 22° 87° 75.3° - - -
6/27 8:50am 336 7 G 12 86° 10% - - 22° 86.5° 75.3° - - -
6/27 8:40am 339 5 G 9 85° 10% - - 22° 85.8° 75.3° - - -
6/27 8:30am 348 6 G 8 84° 10% - - 22° 85.2° 75.3° - - -
6/27 8:20am 342 4 G 7 84° 10% - - 21° 85.2° 75.3° - - -
6/27 8:10am 343 3 G 5 84° 10% - - 21° 84.6° 75.3° - - -
6/27 8:00am 336 3 G 5 83° 10% - - 22° 83.9° 75.3° - - -
6/27 7:50am 22 1 G 5 82° 13% - - 27° 83.6° 75.3° - - -
6/27 7:40am 60 1 G 2 81° 13% - - 26° 82.2° 75.3° - - -
6/27 7:30am 82 2 G 3 79° 15% - - 27° 82.1° 75.3° - - -
6/27 7:20am 92 3 G 5 78° 15% - - 27° 82.1° 75.3° - - -
6/27 7:10am 100 3 G 5 78° 16% - - 27° 82.1° 75.3° - - -
6/27 7:00am 111 2 G 4 78° 13% - - 24° 82.1° 75.3° - - -
6/27 6:50am 73 1 G 4 79° 12% - - 22° 82.1° 75.3° - - -
6/27 6:40am 117 3 G 5 78° 13% - - 23° 82.1° 75.3° - - -
6/27 6:30am 120 5 G 7 77° 14% - - 23° 82.1° 75.3° - - -
6/27 6:20am 114 3 G 6 78° 13% - - 23° 82.1° 76.6° - - -
6/27 6:10am 83 2 G 4 77° 13% - - 23° 82.1° 76.9° - - -
6/27 6:00am 62 4 G 6 78° 13% - - 23° 82.1° 77.3° - - -
6/27 5:50am 56 4 G 6 78° 13% - - 23° 82.1° 77.3° - - -
6/27 5:40am 79 4 G 5 78° 13% - - 23° 82.1° 77.8° - - -
6/27 5:30am 63 4 G 6 78° 13% - - 23° 82.1° 77.8° - - -
6/27 5:20am 73 4 G 6 78° 13% - - 23° 82.1° 77.8° - - -
6/27 5:10am 75 4 G 4 79° 13% - - 23° 82.1° 77.9° - - -
6/27 5:00am 66 4 G 5 79° 13% - - 24° 82.1° 78° - - -
6/27 4:50am 78 4 G 6 79° 13% - - 24° 82.1° 78.1° - - -
6/27 4:40am 82 4 G 5 79° 13% - - 24° 82.1° 78.1° - - -
6/27 4:30am 88 4 G 6 79° 13% - - 24° 82.1° 78.1° - - -
6/27 4:20am 101 3 G 4 80° 12% - - 23° 82.1° 78.7° - - -
6/27 4:10am 63 3 G 4 80° 12% - - 23° 82.1° 79.2° - - -
6/27 4:00am 49 3 G 5 81° 12% - - 23° 82.1° 79.2° - - -
6/27 3:50am 51 3 G 5 81° 12% - - 23° 82.1° 79.2° - - -
6/27 3:40am 66 4 G 5 80° 12% - - 24° 82.1° 79.2° - - -
6/27 3:30am 55 3 G 4 81° 12% - - 24° 82.1° 79.2° - - -
6/27 3:20am 40 2 G 4 81° 12% - - 24° 82.1° 79.2° - - -
6/27 3:10am 63 2 G 3 81° 12% - - 24° 82.1° 79.2° - - -
6/27 3:00am 57 3 G 5 81° 12% - - 24° 82.1° 79.2° - - -
6/27 2:50am 53 3 G 5 81° 12% - - 24° 82.1° 79.2° - - -
6/27 2:40am 71 2 G 5 81° 12% - - 24° 82.1° 79.2° - - -
6/27 2:30am 355 3 G 6 81° 12% - - 24° 82.1° 79.2° - - -
6/27 2:20am 27 3 G 6 81° 12% - - 24° 82.1° 79.2° - - -
6/27 2:10am 37 3 G 6 81° 12% - - 24° 81.7° 79.2° - - -
6/27 2:00am 14 4 G 7 81° 12% - - 24° 81.6° 79.2° - - -
6/27 1:50am 19 5 G 7 80° 12% - - 23° 81.4° 79.2° - - -
6/27 1:40am 80 3 G 6 80° 12% - - 23° 81.4° 79.2° - - -
6/27 1:30am 113 4 G 6 80° 12% - - 22° 81.4° 79.2° - - -
6/27 1:20am 86 3 G 6 80° 12% - - 23° 81.4° 79.3° - - -
6/27 1:10am 28 1 G 3 80° 12% - - 23° 81.4° 79.5° - - -
6/27 1:00am 313 2 G 6 80° 11% - - 20° 81.4° 79.9° - - -
6/27 12:50am 303 3 G 5 81° 10% - - 18° 81.4° 79.9° - - -
6/27 12:40am 263 3 G 6 81° 9% - - 15° 81.4° 79.9° - - -
6/27 12:30am 257 4 G 5 81° 8% - - 15° 81.4° 80.1° - - -
6/27 12:20am 258 4 G 7 81° 10% - - 18° 81.4° 80.2° - - -
6/27 12:10am 259 3 G 5 81° 10% - - 19° 81.4° 80.4° - - -
6/27 12:00am 288 2 G 5 81° 10% - - 19° 98.1° 80.5° - - -
6/26 11:50pm 258 2 G 6 81° 10% - - 20° 98.1° 80.5° - - -
6/26 11:40pm 265 2 G 5 82° 10% - - 20° 98.1° 80.5° - - -
6/26 11:30pm 318 1 G 2 82° 10% - - 20° 98.1° 80.5° - - -
6/26 11:20pm 24 1 G 2 82° 10% - - 19° 98.1° 80.5° - - -
6/26 11:10pm 58 2 G 4 82° 10% - - 20° 98.1° 80.5° - - -
6/26 11:00pm 50 2 G 3 82° 10% - - 20° 98.1° 80.5° - - -
6/26 10:50pm 55 2 G 3 82° 10% - - 20° 98.1° 80.5° - - -
6/26 10:40pm 46 3 G 5 81° 11% - - 21° 98.1° 80.5° - - -
6/26 10:30pm 40 3 G 5 81° 11% - - 21° 98.1° 80.5° - - -
6/26 10:20pm 70 3 G 5 82° 10% - - 21° 98.1° 80.5° - - -
6/26 10:10pm 91 3 G 4 82° 11% - - 22° 98.1° 80.5° - - -
6/26 10:00pm 107 4 G 5 82° 12% - - 24° 98.1° 80.5° - - -
6/26 9:50pm 74 2 G 3 82° 12% - - 25° 98.1° 80.5° - - -
6/26 9:40pm 12 3 G 5 81° 13% - - 25° 98.1° 80.5° - - -
6/26 9:30pm 360 2 G 4 81° 13% - - 26° 98.1° 80.5° - - -
6/26 9:20pm 357 0 G 2 81° 13% - - 26° 98.1° 80.5° - - -
6/26 9:10pm 61 2 G 3 81° 13% - - 27° 98.1° 80.6° - - -
6/26 9:00pm 134 2 G 3 82° 14% - - 27° 98.1° 81° - - -
6/26 8:50pm 133 1 G 4 81° 14% - - 28° 98.1° 81° - - -
6/26 8:40pm 96 3 G 5 82° 15% - - 30° 98.1° 81.1° - - -
6/26 8:30pm 15 3 G 6 82° 17% - - 33° 98.1° 81.1° - - -
6/26 8:20pm 339 3 G 6 82° 17% - - 34° 98.1° 81.6° - - -
6/26 8:10pm 348 4 G 8 83° 18% - - 35° 98.1° 82.1° - - -
6/26 8:00pm 338 5 G 8 83° 19% - - 36° 98.1° 82.1° - - -
6/26 7:50pm 324 6 G 9 84° 18% - - 36° 98.1° 82.1° - - -
6/26 7:40pm 314 6 G 10 86° 16% - - 35° 98.1° 82.1° - - -
6/26 7:30pm 297 5 G 8 87° 17% - - 37° 98.1° 82.1° - - -
6/26 7:20pm 288 6 G 9 88° 16% - - 36° 98.1° 82.1° - - -
6/26 7:10pm 279 6 G 10 88° 15% - - 35° 98.1° 82.1° - - -
6/26 7:00pm 271 6 G 10 89° 15% - - 35° 98.1° 82.1° - - -
6/26 6:50pm 271 7 G 13 90° 14% - - 34° 98.1° 82.1° - - -
6/26 6:40pm 281 8 G 12 91° 12% - - 30° 98.1° 82.1° - - -
6/26 6:30pm 277 8 G 13 91° 12% - - 31° 98.1° 82.1° - - -
6/26 6:20pm 274 8 G 14 91° 11% - - 30° 98.1° 82.1° - - -
6/26 6:10pm 286 9 G 16 92° 10% - - 29° 98.1° 82.1° - - -
6/26 6:00pm 281 10 G 16 92° 11% - - 30° 98.1° 82.1° - - -
6/26 5:50pm 289 11 G 17 93° 11% - - 31° 98.1° 82.1° - - -
6/26 5:40pm 281 11 G 18 93° 11% - - 31° 98.1° 82.1° - - -
6/26 5:30pm 281 10 G 17 94° 11% - - 31° 98.1° 82.1° - - -
6/26 5:20pm 283 10 G 17 95° 10% - - 31° 98.1° 82.1° - - -
6/26 5:10pm 284 11 G 17 95° 11% - - 31° 98.1° 82.1° - - -
6/26 5:00pm 291 11 G 18 95° 10% - - 30° 98.1° 82.1° - - -
6/26 4:50pm 285 10 G 17 96° 10% - - 29° 98.1° 82.1° - - -
6/26 4:40pm 308 12 G 22 96° 9% - - 29° 98.1° 82.1° - - -
6/26 4:30pm 307 13 G 20 95° 9% - - 29° 98.1° 82.1° - - -
6/26 4:20pm 316 17 G 25 95° 8% - - 26° 98.1° 82.1° - - -
6/26 4:10pm 313 13 G 23 96° 9% - - 28° 98.1° 82.1° - - -
6/26 4:00pm 315 17 G 23 95° 9% - - 28° 98.1° 82.1° - - -
6/26 3:50pm 318 14 G 24 96° 10% - - 30° 98.1° 82.1° - - -
6/26 3:40pm 303 13 G 19 96° 11% - - 33° 98.1° 82.1° - - -
6/26 3:30pm 301 12 G 19 96° 13% - - 37° 98.1° 82.1° - - -
6/26 3:20pm 299 13 G 21 95° 13% - - 36° 98.1° 82.1° - - -
6/26 3:10pm 315 14 G 20 96° 13% - - 37° 98.1° 82.1° - - -
6/26 3:00pm 314 15 G 23 95° 12% - - 34° 98.1° 82.1° - - -
6/26 2:50pm 314 15 G 22 95° 12% - - 35° 98.1° 82.1° - - -
6/26 2:40pm 327 15 G 21 96° 14% - - 39° 98.1° 82.1° - - -
6/26 2:30pm 314 14 G 24 96° 13% - - 38° 98.1° 82.1° - - -
6/26 2:20pm 318 14 G 22 96° 12% - - 35° 98.1° 82.1° - - -
6/26 2:10pm 307 11 G 20 96° 13% - - 37° 98.1° 82.1° - - -
6/26 2:00pm 314 13 G 21 95° 13% - - 37° 98.1° 82.1° - - -
6/26 1:50pm 317 13 G 18 96° 13% - - 38° 98.1° 82.1° - - -
6/26 1:40pm 310 14 G 20 96° 13% - - 37° 98.1° 82.1° - - -
6/26 1:30pm 314 14 G 20 96° 12% - - 35° 98.1° 82.1° - - -
6/26 1:20pm 308 14 G 21 96° 11% - - 33° 98.1° 82.1° - - -
6/26 1:10pm 310 15 G 22 96° 11% - - 33° 98.1° 82.1° - - -
6/26 1:00pm 311 15 G 20 96° 12% - - 34° 98.1° 82.1° - - -
6/26 12:50pm 306 12 G 19 96° 11% - - 34° 98.1° 82.1° - - -
6/26 12:40pm 304 13 G 20 96° 11% - - 33° 98.1° 82.1° - - -
6/26 12:30pm 299 12 G 17 97° 10% - - 32° 98.1° 82.1° - - -
6/26 12:20pm 305 11 G 16 96° 10% - - 32° 98.1° 82.1° - - -
6/26 12:10pm 303 12 G 19 96° 10% - - 31° 98.1° 82.1° - - -
6/26 12:00pm 298 9 G 15 97° 10% - - 31° 98.1° 82.1° - - -
6/26 11:50am 306 11 G 19 96° 10% - - 31° 98.1° 82.1° - - -
6/26 11:40am 309 9 G 16 96° 10% - - 31° 97.7° 82.1° - - -
6/26 11:30am 295 10 G 17 96° 10% - - 31° 96.9° 82.1° - - -
6/26 11:20am 314 9 G 16 95° 11% - - 32° 96.3° 82.1° - - -
6/26 11:10am 325 10 G 16 95° 11% - - 33° 96.2° 82.1° - - -
6/26 11:00am 333 11 G 20 95° 11% - - 32° 95.9° 82.1° - - -
6/26 10:50am 342 9 G 15 94° 12% - - 34° 95.9° 82.1° - - -
6/26 10:40am 341 11 G 17 94° 12% - - 33° 95.5° 82.1° - - -
6/26 10:30am 322 10 G 17 94° 12% - - 33° 95.5° 82.1° - - -
6/26 10:20am 314 9 G 14 94° 12% - - 34° 95.1° 82.1° - - -
6/26 10:10am 328 9 G 14 94° 12% - - 34° 94.8° 82.1° - - -
6/26 10:00am 314 8 G 12 94° 13% - - 35° 94.4° 82.1° - - -
6/26 9:50am 340 9 G 12 93° 13% - - 35° 93.9° 82.1° - - -
6/26 9:40am 325 8 G 13 93° 14% - - 36° 93.9° 82.1° - - -
6/26 9:30am 326 8 G 11 93° 14% - - 36° 93.9° 82.1° - - -
6/26 9:20am 322 7 G 12 93° 15% - - 37° 93.2° 82.1° - - -
6/26 9:10am 315 6 G 9 92° 15% - - 37° 92.5° 82.1° - - -
6/26 9:00am 315 5 G 9 92° 14% - - 36° 92.5° 82.1° - - -
6/26 8:50am 315 6 G 8 91° 14% - - 35° 92.1° 82.1° - - -
6/26 8:40am 313 6 G 9 91° 13% - - 34° 91.9° 82.1° - - -
6/26 8:30am 314 5 G 7 91° 14% - - 35° 91.6° 82.1° - - -
6/26 8:20am 309 4 G 6 91° 14% - - 35° 91.1° 82.1° - - -
6/26 8:10am 307 3 G 5 90° 15% - - 36° 90.9° 82.1° - - -
6/26 8:00am 311 3 G 4 90° 14% - - 35° 90.6° 82.1° - - -
6/26 7:50am 334 2 G 4 90° 15% - - 36° 90.3° 82.1° - - -
6/26 7:40am 21 2 G 3 89° 16% - - 36° 89.9° 82.1° - - -
6/26 7:30am 40 2 G 3 88° 16% - - 36° 88.8° 82.1° - - -
6/26 7:20am 45 1 G 2 88° 16% - - 36° 88.1° 82.1° - - -
6/26 7:10am 29 1 G 2 87° 16% - - 36° 87.6° 82.1° - - -
6/26 7:00am 344 1 G 2 87° 16% - - 35° 87.3° 82.1° - - -
6/26 6:50am 14 2 G 4 86° 16% - - 34° 87.3° 82.1° - - -
6/26 6:40am 8 4 G 5 86° 15% - - 34° 87.3° 82.1° - - -
6/26 6:30am 331 2 G 4 86° 15% - - 33° 87.3° 82.1° - - -
6/26 6:20am 5 2 G 3 86° 15% - - 34° 87.3° 82.1° - - -
6/26 6:10am 24 2 G 2 87° 15% - - 33° 87.3° 82.1° - - -
6/26 6:00am 112 1 G 3 86° 15% - - 33° 87° 82.1° - - -